Rigdon, Indiana
Current Conditions -  °F | °C
As of 1:15 PM on Thursday 18 Dec 2014 (Local Time) from KMZZ Reporting Station
Overcast Overcast  
Wind Chill: 18°   Ceiling: 2000
Heat Index: 27°   Visibility: 10mi
Dew Point: 22°   Wind: 8mph
Humidity: 83%   Direction: 280°W
Pressure: 30.25"   Gusts: NA
Location:  40.3067°N, 85.834°W
Report Text: KMZZ 181815Z AUTO 28007KT 10SM OVC020 M03/M05 A3025 RMK AO2 T10301055
Loading
Personal Weather Stations






























Interactive Weather Map New forecast layout! Learn more

10-Day Weather Forecast

Advertisements
Track Severe Weather on mobile